createdAt,value
2019-04-09T00:00:40.652Z,36.10
2019-04-09T00:01:40.390Z,37.30
2019-04-09T00:02:40.284Z,36.50
2019-04-09T00:03:40.050Z,36.30
2019-04-09T00:04:39.469Z,36.70
2019-04-09T00:05:40.140Z,35.80
2019-04-09T00:06:39.358Z,36.50
2019-04-09T00:07:39.282Z,36.20
2019-04-09T00:08:39.994Z,37.10
2019-04-09T00:09:38.992Z,36.20
2019-04-09T00:10:39.081Z,35.70
2019-04-09T00:11:38.825Z,37.60
2019-04-09T00:12:38.753Z,36.00
2019-04-09T00:13:38.680Z,35.30
2019-04-09T00:14:38.584Z,37.10
2019-04-09T00:15:38.498Z,37.30
2019-04-09T00:16:39.245Z,36.90
2019-04-09T00:17:38.342Z,37.80
2019-04-09T00:18:38.274Z,37.80
2019-04-09T00:19:38.170Z,37.10
2019-04-09T00:20:38.094Z,37.10
2019-04-09T00:21:38.018Z,38.00
2019-04-09T00:22:37.925Z,38.30
2019-04-09T00:23:38.344Z,37.10
2019-04-09T00:24:37.761Z,36.60
2019-04-09T00:25:37.685Z,36.70
2019-04-09T00:26:47.563Z,37.10
2019-04-09T00:27:37.523Z,38.40
2019-04-09T00:28:37.652Z,38.60
2019-04-09T00:29:37.358Z,37.50
2019-04-09T00:30:38.249Z,37.80
2019-04-09T00:31:37.198Z,37.80
2019-04-09T00:32:37.124Z,37.80
2019-04-09T00:33:38.001Z,37.00
2019-04-09T00:34:38.005Z,36.50
2019-04-09T00:35:36.870Z,36.80
2019-04-09T00:36:36.924Z,38.10
2019-04-09T00:37:36.697Z,37.90
2019-04-09T00:38:36.920Z,36.90
2019-04-09T00:39:36.907Z,37.00
2019-04-09T00:40:36.450Z,37.60
2019-04-09T00:41:36.389Z,36.90
2019-04-09T00:42:36.312Z,35.70
2019-04-09T00:43:36.232Z,37.40
2019-04-09T00:44:36.983Z,38.50
2019-04-09T00:45:36.177Z,37.60
2019-04-09T00:46:36.125Z,37.00
2019-04-09T00:47:35.880Z,38.70
2019-04-09T00:48:36.094Z,38.90
2019-04-09T00:49:36.018Z,37.20
2019-04-09T00:50:35.631Z,38.20
2019-04-09T00:51:35.558Z,36.70
2019-04-09T00:52:36.363Z,36.30
2019-04-09T00:53:36.207Z,36.60
2019-04-09T00:54:35.318Z,36.40
2019-04-09T00:55:35.277Z,37.10
2019-04-09T00:56:35.877Z,38.10
2019-04-09T00:57:35.066Z,36.80
2019-04-09T00:58:34.990Z,37.00
2019-04-09T00:59:34.898Z,36.50
2019-04-09T01:00:34.817Z,36.70
2019-04-09T01:01:34.736Z,36.40
2019-04-09T01:02:34.648Z,37.20
2019-04-09T01:03:34.602Z,37.70
2019-04-09T01:04:34.490Z,36.80
2019-04-09T01:05:34.409Z,37.80
2019-04-09T01:06:34.320Z,37.30
2019-04-09T01:07:34.242Z,37.10
2019-04-09T01:08:34.177Z,37.50
2019-04-09T01:09:34.958Z,37.60
2019-04-09T01:10:34.680Z,36.30
2019-04-09T01:11:33.922Z,36.70
2019-04-09T01:12:34.619Z,37.10
2019-04-09T01:13:33.760Z,37.40
2019-04-09T01:14:33.750Z,37.50
2019-04-09T01:15:33.797Z,36.20
2019-04-09T01:16:33.867Z,36.60
2019-04-09T01:17:33.895Z,37.60
2019-04-09T01:18:33.353Z,36.30
2019-04-09T01:19:33.880Z,37.30
2019-04-09T01:20:33.835Z,38.10
2019-04-09T01:21:33.091Z,37.50
2019-04-09T01:22:33.017Z,36.30
2019-04-09T01:23:32.939Z,36.90
2019-04-09T01:24:36.771Z,38.10
2019-04-09T01:25:32.979Z,37.00
2019-04-09T01:26:32.723Z,37.00
2019-04-09T01:27:32.601Z,38.30
2019-04-09T01:28:32.924Z,37.40
2019-04-09T01:29:32.435Z,37.40
2019-04-09T01:30:32.362Z,38.00
2019-04-09T01:31:33.306Z,37.40
2019-04-09T01:32:33.295Z,37.80
2019-04-09T01:33:33.094Z,36.50
2019-04-09T01:34:32.033Z,38.00
2019-04-09T01:35:31.955Z,38.50
2019-04-09T01:36:31.865Z,37.20
2019-04-09T01:37:31.785Z,37.30
2019-04-09T01:38:31.713Z,37.50
2019-04-09T01:39:32.088Z,36.80
2019-04-09T01:40:32.084Z,37.80
2019-04-09T01:41:31.454Z,37.70
2019-04-09T01:42:31.374Z,38.80
2019-04-09T01:43:32.072Z,37.10
2019-04-09T01:44:32.043Z,38.70
2019-04-09T01:45:31.126Z,37.40
2019-04-09T01:46:31.039Z,37.90
2019-04-09T01:47:30.961Z,36.10
2019-04-09T01:48:30.915Z,37.10
2019-04-09T01:49:30.794Z,37.40
2019-04-09T01:50:31.036Z,37.60
2019-04-09T01:51:31.093Z,37.40
2019-04-09T01:52:30.551Z,37.50
2019-04-09T01:53:30.485Z,36.70
2019-04-09T01:54:30.381Z,37.30
2019-04-09T01:55:30.364Z,36.10
2019-04-09T01:56:31.071Z,36.50
2019-04-09T01:57:33.365Z,36.80
2019-04-09T01:58:30.982Z,37.10
2019-04-09T01:59:30.819Z,37.40
2019-04-09T02:00:30.059Z,36.20
2019-04-09T02:01:30.171Z,36.00
2019-04-09T02:02:31.420Z,37.10
2019-04-09T02:03:29.656Z,36.30
2019-04-09T02:04:30.455Z,37.00
2019-04-09T02:05:29.508Z,37.10
2019-04-09T02:06:29.403Z,36.80
2019-04-09T02:07:29.314Z,35.90
2019-04-09T02:08:29.252Z,37.30
2019-04-09T02:09:29.564Z,35.80
2019-04-09T02:10:29.210Z,36.70
2019-04-09T02:11:29.761Z,36.40
2019-04-09T02:12:28.904Z,37.20
2019-04-09T02:13:28.840Z,37.00
2019-04-09T02:14:29.506Z,36.70
2019-04-09T02:15:29.509Z,36.90
2019-04-09T02:16:28.602Z,37.20
2019-04-09T02:17:28.490Z,37.50
2019-04-09T02:18:28.423Z,36.00
2019-04-09T02:19:28.336Z,36.70
2019-04-09T02:20:28.249Z,37.00
2019-04-09T02:21:28.656Z,36.20
2019-04-09T02:22:28.774Z,36.60
2019-04-09T02:23:28.015Z,36.80
2019-04-09T02:24:28.638Z,36.50
2019-04-09T02:25:28.592Z,37.00
2019-04-09T02:26:28.612Z,36.10
2019-04-09T02:27:38.465Z,36.60
2019-04-09T02:28:27.600Z,38.00
2019-04-09T02:29:27.511Z,37.90
2019-04-09T02:30:28.897Z,37.20
2019-04-09T02:31:28.380Z,37.40
2019-04-09T02:32:28.129Z,37.80
2019-04-09T02:33:27.315Z,37.00
2019-04-09T02:34:27.642Z,37.20
2019-04-09T02:35:28.774Z,38.50
2019-04-09T02:36:28.378Z,36.50
2019-04-09T02:37:27.431Z,36.20
2019-04-09T02:38:27.763Z,36.90
2019-04-09T02:39:27.357Z,38.90
2019-04-09T02:40:27.515Z,36.70
2019-04-09T02:41:27.456Z,38.10
2019-04-09T02:42:26.647Z,37.30
2019-04-09T02:43:26.602Z,37.20
2019-04-09T02:44:26.267Z,37.40
2019-04-09T02:45:26.196Z,36.30
2019-04-09T02:46:26.576Z,37.10
2019-04-09T02:47:26.024Z,36.40
2019-04-09T02:48:25.953Z,38.30
2019-04-09T02:49:26.651Z,37.40
2019-04-09T02:50:26.536Z,37.30
2019-04-09T02:51:26.391Z,38.30
2019-04-09T02:52:25.672Z,37.40
2019-04-09T02:53:25.536Z,36.90
2019-04-09T02:54:25.445Z,37.20
2019-04-09T02:55:25.357Z,37.20
2019-04-09T02:56:25.274Z,38.20
2019-04-09T02:57:26.060Z,39.40
2019-04-09T02:58:25.124Z,37.90
2019-04-09T02:59:25.811Z,38.40
2019-04-09T03:00:25.847Z,36.00
2019-04-09T03:01:24.868Z,38.40
2019-04-09T03:02:25.815Z,37.60
2019-04-09T03:03:25.660Z,38.60
2019-04-09T03:04:24.873Z,38.60
2019-04-09T03:05:24.594Z,38.00
2019-04-09T03:06:24.465Z,39.40
2019-04-09T03:07:24.369Z,38.40
2019-04-09T03:08:24.290Z,38.20
2019-04-09T03:09:24.538Z,38.20
2019-04-09T03:10:24.617Z,39.70
2019-04-09T03:11:24.367Z,39.70
2019-04-09T03:12:23.959Z,38.80
2019-04-09T03:13:24.117Z,38.90
2019-04-09T03:14:24.144Z,38.80
2019-04-09T03:15:24.187Z,41.10
2019-04-09T03:16:23.626Z,40.90
2019-04-09T03:17:23.808Z,38.70
2019-04-09T03:18:23.455Z,38.80
2019-04-09T03:19:23.390Z,40.80
2019-04-09T03:20:23.952Z,39.30
2019-04-09T03:21:23.859Z,38.80
2019-04-09T03:22:23.523Z,41.00
2019-04-09T03:23:23.053Z,38.20
2019-04-09T03:24:22.990Z,39.90
2019-04-09T03:25:22.883Z,40.10
2019-04-09T03:26:22.801Z,41.00
2019-04-09T03:27:23.767Z,41.10
2019-04-09T03:28:22.635Z,41.00
2019-04-09T03:29:23.185Z,39.10
2019-04-09T03:30:23.055Z,40.20
2019-04-09T03:31:24.192Z,41.30
2019-04-09T03:32:24.070Z,40.10
2019-04-09T03:33:22.511Z,40.60
2019-04-09T03:34:23.592Z,40.70
2019-04-09T03:35:22.078Z,40.30
2019-04-09T03:36:22.943Z,40.70
2019-04-09T03:37:21.904Z,41.50
2019-04-09T03:38:22.100Z,38.80
2019-04-09T03:39:21.934Z,39.10
2019-04-09T03:40:21.650Z,38.80
2019-04-09T03:41:21.558Z,40.50
2019-04-09T03:42:22.029Z,39.10
2019-04-09T03:43:21.417Z,39.50
2019-04-09T03:44:21.523Z,39.30
2019-04-09T03:45:21.232Z,39.30
2019-04-09T03:46:22.217Z,40.90
2019-04-09T03:47:21.533Z,40.70
2019-04-09T03:48:21.598Z,40.20
2019-04-09T03:49:20.907Z,39.50
2019-04-09T03:50:21.389Z,40.70
2019-04-09T03:51:21.287Z,40.50
2019-04-09T03:52:20.812Z,41.10
2019-04-09T03:53:20.769Z,40.00
2019-04-09T03:54:20.506Z,42.70
2019-04-09T03:55:20.413Z,40.30
2019-04-09T03:56:20.316Z,40.90
2019-04-09T03:57:20.235Z,39.70
2019-04-09T03:58:23.237Z,40.00
2019-04-09T03:59:20.689Z,40.90
2019-04-09T04:00:20.735Z,41.40
2019-04-09T04:01:19.916Z,41.10
2019-04-09T04:02:20.043Z,41.30
2019-04-09T04:03:20.051Z,40.00
2019-04-09T04:04:19.673Z,42.30
2019-04-09T04:05:20.815Z,40.30
2019-04-09T04:06:19.549Z,41.10
2019-04-09T04:07:19.550Z,41.70
2019-04-09T04:08:19.327Z,41.90
2019-04-09T04:09:19.252Z,40.40
2019-04-09T04:10:19.680Z,41.30
2019-04-09T04:11:19.071Z,40.20
2019-04-09T04:12:18.996Z,41.20
2019-04-09T04:13:18.907Z,40.50
2019-04-09T04:14:18.845Z,41.20
2019-04-09T04:15:20.298Z,41.00
2019-04-09T04:16:18.663Z,40.20
2019-04-09T04:17:18.575Z,40.70
2019-04-09T04:18:19.269Z,41.90
2019-04-09T04:19:19.304Z,41.20
2019-04-09T04:20:18.331Z,40.60
2019-04-09T04:21:19.237Z,41.60
2019-04-09T04:22:19.251Z,40.70
2019-04-09T04:23:18.510Z,40.70
2019-04-09T04:24:18.434Z,41.50
2019-04-09T04:25:17.914Z,42.50
2019-04-09T04:26:18.049Z,42.20
2019-04-09T04:27:17.809Z,42.20
2019-04-09T04:28:26.312Z,42.30
2019-04-09T04:29:17.604Z,41.30
2019-04-09T04:30:17.494Z,40.70
2019-04-09T04:31:17.464Z,40.10
2019-04-09T04:32:17.422Z,42.30
2019-04-09T04:33:17.247Z,42.20
2019-04-09T04:34:17.187Z,41.20
2019-04-09T04:35:17.886Z,41.50
2019-04-09T04:36:17.012Z,42.20
2019-04-09T04:37:17.003Z,41.30
2019-04-09T04:38:16.827Z,41.40
2019-04-09T04:39:16.763Z,41.80
2019-04-09T04:40:17.707Z,42.90
2019-04-09T04:41:16.579Z,42.60
2019-04-09T04:42:17.223Z,43.30
2019-04-09T04:43:16.995Z,43.00
2019-04-09T04:44:16.602Z,42.30
2019-04-09T04:45:16.246Z,43.00
2019-04-09T04:46:17.116Z,41.50
2019-04-09T04:47:16.082Z,42.90
2019-04-09T04:48:15.997Z,41.70
2019-04-09T04:49:16.538Z,41.90
2019-04-09T04:50:15.833Z,41.80
2019-04-09T04:51:16.617Z,43.80
2019-04-09T04:52:15.674Z,43.60
2019-04-09T04:53:15.587Z,44.00
2019-04-09T04:54:15.514Z,41.70
2019-04-09T04:55:15.419Z,43.80
2019-04-09T04:56:15.368Z,43.10
2019-04-09T04:57:15.248Z,44.10
2019-04-09T04:58:15.999Z,43.70
2019-04-09T04:59:15.914Z,42.90
2019-04-09T05:00:15.138Z,43.90
2019-04-09T05:01:14.916Z,43.90
2019-04-09T05:02:15.759Z,44.10
2019-04-09T05:03:15.643Z,44.80
2019-04-09T05:04:15.373Z,43.60
2019-04-09T05:05:14.590Z,44.50
2019-04-09T05:06:14.503Z,42.00
2019-04-09T05:07:14.417Z,44.20
2019-04-09T05:08:14.344Z,43.90
2019-04-09T05:09:14.553Z,43.80
2019-04-09T05:10:15.219Z,43.00
2019-04-09T05:11:14.564Z,43.90
2019-04-09T05:12:14.007Z,44.00
2019-04-09T05:13:14.455Z,44.30
2019-04-09T05:14:13.854Z,44.80
2019-04-09T05:15:13.751Z,43.20
2019-04-09T05:16:14.468Z,43.00
2019-04-09T05:17:14.170Z,43.70
2019-04-09T05:18:13.503Z,44.00
2019-04-09T05:19:13.955Z,44.70
2019-04-09T05:20:13.341Z,42.60
2019-04-09T05:21:13.659Z,42.90
2019-04-09T05:22:13.239Z,43.10
2019-04-09T05:23:13.636Z,43.60
2019-04-09T05:24:13.053Z,44.20
2019-04-09T05:25:13.261Z,44.40
2019-04-09T05:26:12.858Z,43.90
2019-04-09T05:27:12.836Z,43.60
2019-04-09T05:28:12.691Z,43.00
2019-04-09T05:29:13.609Z,42.30
2019-04-09T05:30:13.740Z,43.20
2019-04-09T05:31:12.419Z,42.30
2019-04-09T05:32:12.346Z,43.80
2019-04-09T05:33:12.259Z,43.80
2019-04-09T05:34:12.353Z,40.30
2019-04-09T05:35:12.700Z,44.00
2019-04-09T05:36:12.131Z,42.80
2019-04-09T05:37:12.128Z,43.90
2019-04-09T05:38:11.937Z,42.60
2019-04-09T05:39:11.772Z,43.80
2019-04-09T05:40:12.746Z,43.40
2019-04-09T05:41:11.793Z,43.10
2019-04-09T05:42:11.508Z,44.20
2019-04-09T05:43:12.647Z,43.00
2019-04-09T05:44:12.640Z,41.30
2019-04-09T05:45:11.817Z,42.90
2019-04-09T05:46:11.183Z,42.40
2019-04-09T05:47:11.091Z,42.50
2019-04-09T05:48:11.193Z,43.50
2019-04-09T05:49:11.692Z,41.10
2019-04-09T05:50:10.889Z,43.00
2019-04-09T05:51:10.953Z,42.90
2019-04-09T05:52:10.800Z,42.90
2019-04-09T05:53:11.395Z,41.70
2019-04-09T05:54:11.385Z,43.60
2019-04-09T05:55:10.617Z,42.30
2019-04-09T05:56:10.341Z,43.00
2019-04-09T05:57:10.267Z,41.50
2019-04-09T05:58:10.942Z,43.20
2019-04-09T05:59:11.194Z,42.70
2019-04-09T06:00:10.181Z,40.20
2019-04-09T06:01:09.939Z,42.30
2019-04-09T06:02:09.847Z,41.70
2019-04-09T06:03:09.859Z,42.30
2019-04-09T06:04:09.697Z,43.10
2019-04-09T06:05:09.605Z,43.00
2019-04-09T06:06:09.517Z,44.10
2019-04-09T06:07:09.435Z,43.60
2019-04-09T06:08:09.513Z,42.60
2019-04-09T06:09:09.293Z,44.20
2019-04-09T06:10:09.342Z,42.30
2019-04-09T06:11:09.613Z,42.30
2019-04-09T06:12:09.013Z,43.40
2019-04-09T06:13:09.235Z,42.10
2019-04-09T06:14:08.846Z,43.50
2019-04-09T06:15:08.938Z,42.40
2019-04-09T06:16:08.680Z,42.40
2019-04-09T06:17:08.609Z,43.00
2019-04-09T06:18:08.720Z,43.30
2019-04-09T06:19:08.439Z,42.10
2019-04-09T06:20:08.643Z,43.50
2019-04-09T06:21:10.182Z,42.30
2019-04-09T06:22:08.685Z,43.10
2019-04-09T06:23:08.101Z,42.70
2019-04-09T06:24:08.149Z,44.30
2019-04-09T06:25:09.013Z,43.80
2019-04-09T06:26:09.410Z,43.20
2019-04-09T06:27:10.001Z,43.40
2019-04-09T06:28:07.947Z,42.50
2019-04-09T06:29:16.102Z,44.90
2019-04-09T06:30:07.605Z,42.50
2019-04-09T06:31:08.354Z,43.00
2019-04-09T06:32:07.357Z,43.50
2019-04-09T06:33:07.992Z,43.00
2019-04-09T06:34:07.193Z,41.20
2019-04-09T06:35:07.586Z,41.20
2019-04-09T06:36:07.202Z,40.50
2019-04-09T06:37:06.952Z,41.10
2019-04-09T06:38:07.142Z,41.90
2019-04-09T06:39:06.789Z,41.20
2019-04-09T06:40:06.711Z,41.40
2019-04-09T06:41:06.759Z,41.00
2019-04-09T06:42:06.696Z,42.00
2019-04-09T06:43:07.283Z,41.80
2019-04-09T06:44:06.498Z,42.30
2019-04-09T06:45:06.471Z,42.20
2019-04-09T06:46:07.344Z,42.50
2019-04-09T06:47:06.618Z,41.70
2019-04-09T06:48:06.971Z,41.20
2019-04-09T06:49:06.110Z,42.20
2019-04-09T06:50:05.895Z,42.60
2019-04-09T06:51:05.883Z,39.90
2019-04-09T06:52:06.256Z,41.00
2019-04-09T06:53:06.644Z,42.30
2019-04-09T06:54:06.002Z,41.50
2019-04-09T06:55:10.415Z,42.00
2019-04-09T06:56:05.383Z,42.30
2019-04-09T06:57:06.082Z,42.00
2019-04-09T06:58:06.139Z,42.40
2019-04-09T06:59:05.320Z,43.00
2019-04-09T07:00:05.100Z,42.40
2019-04-09T07:01:05.126Z,42.80
2019-04-09T07:02:05.815Z,41.40
2019-04-09T07:03:05.000Z,42.80
2019-04-09T07:04:05.712Z,42.00
2019-04-09T07:05:04.941Z,41.50
2019-04-09T07:06:04.560Z,43.00
2019-04-09T07:07:04.547Z,41.20
2019-04-09T07:08:04.447Z,41.40
2019-04-09T07:09:04.350Z,43.10
2019-04-09T07:10:04.247Z,42.90
2019-04-09T07:11:13.139Z,43.30
2019-04-09T07:12:05.132Z,43.30
2019-04-09T07:13:05.115Z,69.60
2019-04-09T07:14:04.266Z,100.80
2019-04-09T07:15:04.898Z,56.30
2019-04-09T07:16:03.738Z,64.70
2019-04-09T07:17:03.787Z,55.30
2019-04-09T07:18:03.576Z,116.40
2019-04-09T07:19:03.600Z,48.10
2019-04-09T07:20:03.428Z,80.50
2019-04-09T07:21:03.589Z,82.00
2019-04-09T07:22:03.255Z,87.70
2019-04-09T07:23:03.718Z,76.40
2019-04-09T07:24:03.083Z,84.80
2019-04-09T07:25:03.652Z,59.30
2019-04-09T07:26:04.866Z,62.30
2019-04-09T07:27:03.575Z,43.60
2019-04-09T07:28:02.854Z,44.00
2019-04-09T07:29:03.717Z,48.00
2019-04-09T07:30:08.662Z,48.50
2019-04-09T07:31:04.823Z,46.40
2019-04-09T07:32:03.213Z,64.60
2019-04-09T07:33:02.354Z,68.80
2019-04-09T07:34:03.527Z,55.60
2019-04-09T07:35:02.357Z,46.00
2019-04-09T07:36:05.788Z,48.20
2019-04-09T07:37:02.690Z,49.40
2019-04-09T07:38:02.092Z,54.30
2019-04-09T07:39:02.040Z,48.60
2019-04-09T07:40:02.589Z,43.50
2019-04-09T07:41:06.146Z,42.50
2019-04-09T07:42:01.989Z,58.80
2019-04-09T07:43:04.071Z,43.30
2019-04-09T07:44:03.827Z,61.20
2019-04-09T07:45:04.997Z,65.10
2019-04-09T07:46:02.191Z,108.30
2019-04-09T07:47:01.205Z,71.20
2019-04-09T07:48:01.345Z,86.50
2019-04-09T07:49:02.304Z,49.60
2019-04-09T07:50:06.777Z,42.60
2019-04-09T07:51:01.120Z,101.10
2019-04-09T07:52:01.049Z,45.40
2019-04-09T07:53:02.278Z,79.40
2019-04-09T07:54:04.539Z,49.10
2019-04-09T07:55:00.794Z,88.30
2019-04-09T07:56:00.976Z,79.70
2019-04-09T07:57:02.847Z,72.60
2019-04-09T07:58:00.372Z,55.40
2019-04-09T07:59:01.057Z,82.30
2019-04-09T08:00:11.459Z,67.20
2019-04-09T08:01:00.075Z,53.80
2019-04-09T08:02:00.209Z,73.30
2019-04-09T08:03:01.133Z,56.20
2019-04-09T08:04:04.491Z,42.40
2019-04-09T08:05:00.587Z,44.90
2019-04-09T08:06:00.308Z,39.60
2019-04-09T08:07:03.450Z,45.80
2019-04-09T08:08:02.078Z,42.20
2019-04-09T08:09:00.345Z,39.10
2019-04-09T08:09:59.743Z,40.80
2019-04-09T08:10:59.625Z,40.60
2019-04-09T08:11:59.183Z,40.50
2019-04-09T08:12:59.097Z,40.10
2019-04-09T08:13:59.563Z,41.70
2019-04-09T08:15:01.103Z,40.40
2019-04-09T08:15:59.902Z,40.10
2019-04-09T08:16:58.776Z,41.10
2019-04-09T08:18:07.117Z,40.50
2019-04-09T08:18:59.698Z,40.30
2019-04-09T08:19:58.957Z,39.60
2019-04-09T08:21:01.127Z,39.70
2019-04-09T08:21:59.137Z,39.80
2019-04-09T08:22:58.577Z,40.50
2019-04-09T08:23:58.329Z,38.00
2019-04-09T08:24:59.908Z,39.10
2019-04-09T08:26:03.169Z,38.30
2019-04-09T08:26:57.969Z,40.40
2019-04-09T08:27:57.925Z,39.70
2019-04-09T08:28:57.811Z,39.90
2019-04-09T08:30:09.372Z,40.70
2019-04-09T08:30:57.651Z,39.40
2019-04-09T08:32:11.078Z,40.20
2019-04-09T08:32:57.982Z,38.80
2019-04-09T08:33:58.604Z,38.10
2019-04-09T08:35:01.174Z,37.80
2019-04-09T08:35:57.755Z,39.00
2019-04-09T08:36:57.178Z,39.70
2019-04-09T08:37:59.687Z,38.50
2019-04-09T08:39:00.388Z,38.80
2019-04-09T08:39:57.524Z,37.70
2019-04-09T08:40:56.855Z,38.30
2019-04-09T08:41:57.649Z,37.40
2019-04-09T08:42:57.777Z,38.60
2019-04-09T08:44:01.533Z,37.50
2019-04-09T08:44:56.704Z,38.10
2019-04-09T08:45:56.459Z,38.50
2019-04-09T08:47:00.018Z,40.30
2019-04-09T08:47:56.939Z,37.60
2019-04-09T08:48:56.226Z,37.60
2019-04-09T08:49:58.299Z,37.70
2019-04-09T08:50:58.426Z,37.70
2019-04-09T08:51:56.020Z,38.10
2019-04-09T08:52:56.239Z,39.10
2019-04-09T08:53:56.175Z,38.00
2019-04-09T08:54:58.451Z,39.10
2019-04-09T08:55:56.696Z,38.60
2019-04-09T08:56:55.746Z,37.50
2019-04-09T08:57:56.576Z,36.50
2019-04-09T08:58:57.325Z,38.70
2019-04-09T08:59:55.514Z,37.80
2019-04-09T09:02:11.180Z,36.10
2019-04-09T09:02:55.989Z,39.30
2019-04-09T09:04:00.606Z,38.00
2019-04-09T09:05:05.648Z,36.30
2019-04-09T09:06:00.845Z,35.90
2019-04-09T09:06:55.277Z,36.50
2019-04-09T09:07:54.788Z,37.60
2019-04-09T09:08:58.010Z,37.10
2019-04-09T09:09:55.257Z,36.90
2019-04-09T09:10:55.024Z,38.20
2019-04-09T09:11:58.563Z,38.40
2019-04-09T09:12:54.909Z,37.20
2019-04-09T09:13:54.282Z,39.10
2019-04-09T09:14:54.300Z,38.80
2019-04-09T09:15:56.133Z,38.10
2019-04-09T09:16:54.277Z,37.10
2019-04-09T09:17:55.366Z,37.00
2019-04-09T09:18:56.548Z,37.00
2019-04-09T09:19:53.956Z,36.40
2019-04-09T09:20:53.855Z,38.10
2019-04-09T09:21:53.657Z,37.40
2019-04-09T09:22:54.229Z,36.90
2019-04-09T09:23:53.612Z,37.20
2019-04-09T09:24:54.529Z,37.40
2019-04-09T09:25:56.811Z,36.90
2019-04-09T09:26:53.956Z,42.60
2019-04-09T09:27:54.082Z,37.70
2019-04-09T09:28:53.314Z,37.80
2019-04-09T09:29:55.594Z,37.50
2019-04-09T09:31:00.898Z,35.50
2019-04-09T09:31:53.222Z,37.00
2019-04-09T09:32:53.491Z,36.60
2019-04-09T09:33:54.488Z,38.60
2019-04-09T09:34:55.528Z,37.00
2019-04-09T09:35:52.576Z,37.00
2019-04-09T09:36:52.632Z,37.90
2019-04-09T09:37:55.194Z,37.70
2019-04-09T09:38:53.829Z,37.30
2019-04-09T09:39:53.440Z,36.30
2019-04-09T09:40:52.675Z,36.70
2019-04-09T09:41:52.764Z,37.10
2019-04-09T09:42:52.865Z,35.30
2019-04-09T09:43:52.552Z,38.20
2019-04-09T09:44:55.935Z,37.40
2019-04-09T09:45:51.815Z,36.40
2019-04-09T09:46:54.436Z,35.00
2019-04-09T09:47:54.396Z,36.00
2019-04-09T09:48:56.212Z,35.50
2019-04-09T09:49:51.462Z,35.60
2019-04-09T09:50:51.659Z,36.20
2019-04-09T09:51:51.615Z,37.20
2019-04-09T09:52:54.090Z,36.40
2019-04-09T09:53:53.280Z,36.20
2019-04-09T09:54:51.074Z,35.20
2019-04-09T09:55:56.381Z,36.60
2019-04-09T09:56:51.883Z,36.00
2019-04-09T09:57:50.857Z,35.70
2019-04-09T09:58:50.775Z,34.10
2019-04-09T09:59:52.008Z,35.60
2019-04-09T10:00:50.622Z,34.90
2019-04-09T10:01:59.142Z,35.00
2019-04-09T10:02:50.443Z,35.90
2019-04-09T10:03:52.269Z,34.80
2019-04-09T10:04:53.463Z,34.60
2019-04-09T10:05:50.218Z,34.20
2019-04-09T10:06:52.386Z,32.20
2019-04-09T10:07:56.131Z,32.60
2019-04-09T10:08:50.645Z,33.30
2019-04-09T10:09:50.859Z,30.80
2019-04-09T10:10:50.068Z,34.10
2019-04-09T10:11:53.760Z,32.20
2019-04-09T10:12:52.505Z,31.60
2019-04-09T10:13:50.619Z,31.70
2019-04-09T10:14:50.170Z,34.00
2019-04-09T10:15:49.525Z,32.70
2019-04-09T10:16:52.466Z,32.50
2019-04-09T10:17:49.319Z,32.30
2019-04-09T10:18:59.035Z,32.40
2019-04-09T10:19:49.123Z,33.50
2019-04-09T10:20:49.498Z,32.90
2019-04-09T10:21:49.739Z,32.80
2019-04-09T10:22:54.906Z,31.60
2019-04-09T10:23:49.643Z,32.10
2019-04-09T10:24:51.866Z,31.60
2019-04-09T10:25:48.685Z,32.10
2019-04-09T10:26:49.822Z,32.20
2019-04-09T10:27:50.112Z,31.10
2019-04-09T10:28:48.448Z,31.10
2019-04-09T10:29:48.359Z,31.00
2019-04-09T10:30:49.233Z,33.40
2019-04-09T10:31:50.381Z,30.50
2019-04-09T10:32:48.293Z,30.70
2019-04-09T10:33:50.687Z,36.80
2019-04-09T10:34:47.988Z,29.70
2019-04-09T10:35:48.864Z,31.80
2019-04-09T10:36:47.833Z,31.90
2019-04-09T10:37:50.329Z,27.10
2019-04-09T10:38:47.728Z,31.00
2019-04-09T10:39:47.604Z,28.40
2019-04-09T10:40:50.310Z,30.80
2019-04-09T10:41:51.027Z,29.50
2019-04-09T10:42:48.305Z,29.60
2019-04-09T10:43:49.009Z,30.40
2019-04-09T10:44:49.820Z,29.80
2019-04-09T10:45:47.167Z,30.20
2019-04-09T10:46:47.071Z,29.40
2019-04-09T10:47:47.006Z,27.50
2019-04-09T10:48:48.664Z,28.00
2019-04-09T10:49:47.196Z,29.20
2019-04-09T10:50:46.799Z,29.70
2019-04-09T10:51:46.698Z,30.20
2019-04-09T10:52:51.319Z,28.80
2019-04-09T10:53:46.556Z,27.30
2019-04-09T10:54:47.943Z,29.30
2019-04-09T10:55:49.360Z,31.00
2019-04-09T10:56:47.923Z,27.20
2019-04-09T10:57:46.711Z,28.90
2019-04-09T10:58:46.182Z,27.60
2019-04-09T10:59:46.976Z,29.00
2019-04-09T11:00:47.010Z,28.60
2019-04-09T11:01:51.490Z,28.50
2019-04-09T11:02:45.883Z,29.10
2019-04-09T11:03:45.883Z,29.60
2019-04-09T11:04:45.908Z,28.80
2019-04-09T11:05:50.317Z,28.30
2019-04-09T11:06:45.605Z,27.30
2019-04-09T11:07:45.834Z,28.10
2019-04-09T11:08:45.539Z,28.40
2019-04-09T11:09:46.491Z,29.00
2019-04-09T11:10:46.374Z,28.90
2019-04-09T11:11:45.555Z,26.30
2019-04-09T11:12:45.149Z,27.60
2019-04-09T11:13:45.991Z,27.90
2019-04-09T11:14:47.233Z,27.90
2019-04-09T11:15:47.762Z,27.80
2019-04-09T11:16:44.868Z,27.50
2019-04-09T11:17:45.424Z,27.20
2019-04-09T11:18:47.699Z,28.80
2019-04-09T11:19:45.538Z,28.00
2019-04-09T11:20:44.560Z,28.70
2019-04-09T11:21:44.563Z,28.00
2019-04-09T11:22:47.644Z,29.70
2019-04-09T11:23:44.988Z,27.40
2019-04-09T11:24:44.245Z,28.10
2019-04-09T11:25:45.794Z,28.90
2019-04-09T11:26:45.949Z,27.50
2019-04-09T11:27:45.012Z,28.00
2019-04-09T11:28:43.957Z,26.90
2019-04-09T11:29:43.871Z,28.00
2019-04-09T11:30:43.810Z,27.60
2019-04-09T11:31:49.423Z,27.50
2019-04-09T11:32:44.543Z,26.30
2019-04-09T11:33:44.730Z,27.80
2019-04-09T11:34:43.758Z,27.40
2019-04-09T11:35:44.245Z,25.60
2019-04-09T11:36:43.467Z,26.20
2019-04-09T11:37:43.430Z,27.10
2019-04-09T11:38:43.690Z,27.60
2019-04-09T11:39:43.126Z,27.10
2019-04-09T11:40:43.272Z,27.10
2019-04-09T11:41:44.340Z,26.80
2019-04-09T11:42:43.534Z,27.20
2019-04-09T11:43:42.841Z,27.30
2019-04-09T11:44:42.902Z,26.70
2019-04-09T11:45:42.688Z,26.80
2019-04-09T11:46:42.610Z,26.70
2019-04-09T11:47:43.429Z,26.30
2019-04-09T11:48:42.463Z,27.00
2019-04-09T11:49:42.626Z,26.20
2019-04-09T11:50:42.496Z,27.50
2019-04-09T11:51:42.220Z,26.50
2019-04-09T11:52:42.746Z,26.70
2019-04-09T11:53:42.072Z,26.40
2019-04-09T11:54:42.831Z,28.10
2019-04-09T11:55:43.063Z,24.70
2019-04-09T11:56:42.359Z,26.80
2019-04-09T11:57:41.775Z,26.50
2019-04-09T11:58:42.583Z,26.40
2019-04-09T11:59:41.620Z,26.00
2019-04-09T12:00:41.788Z,26.50
2019-04-09T12:01:41.475Z,26.40
2019-04-09T12:02:42.303Z,24.90
2019-04-09T12:03:41.375Z,25.50
2019-04-09T12:04:41.247Z,24.70
2019-04-09T12:05:43.983Z,26.00
2019-04-09T12:06:41.750Z,27.80
2019-04-09T12:07:42.065Z,24.40
2019-04-09T12:08:41.139Z,32.70
2019-04-09T12:09:40.866Z,23.80
2019-04-09T12:10:40.811Z,24.20
2019-04-09T12:11:40.933Z,25.80
2019-04-09T12:12:40.641Z,25.60
2019-04-09T12:13:40.570Z,25.30
2019-04-09T12:14:40.489Z,23.50
2019-04-09T12:15:40.629Z,25.70
2019-04-09T12:16:40.342Z,25.60
2019-04-09T12:17:40.265Z,25.10
2019-04-09T12:18:40.190Z,25.50
2019-04-09T12:19:40.908Z,25.60
2019-04-09T12:20:40.388Z,29.80
2019-04-09T12:21:39.959Z,24.70
2019-04-09T12:22:39.951Z,24.60
2019-04-09T12:23:40.644Z,29.60
2019-04-09T12:24:39.737Z,24.80
2019-04-09T12:25:40.001Z,27.20
2019-04-09T12:26:39.586Z,23.00
2019-04-09T12:27:40.231Z,24.30
2019-04-09T12:28:39.452Z,25.10
2019-04-09T12:29:39.361Z,23.80
2019-04-09T12:30:39.866Z,23.50
2019-04-09T12:31:39.219Z,23.90
2019-04-09T12:32:39.795Z,24.80
2019-04-09T12:33:39.880Z,24.10
2019-04-09T12:34:40.082Z,24.70
2019-04-09T12:35:39.051Z,24.70
2019-04-09T12:36:38.832Z,24.70
2019-04-09T12:37:39.707Z,24.50
2019-04-09T12:38:39.668Z,24.70
2019-04-09T12:39:38.607Z,23.40
2019-04-09T12:40:39.493Z,24.20
2019-04-09T12:41:38.538Z,31.20
2019-04-09T12:42:38.672Z,32.30
2019-04-09T12:43:39.057Z,29.80
2019-04-09T12:44:38.235Z,37.90
2019-04-09T12:45:38.404Z,30.00
2019-04-09T12:46:38.096Z,44.70
2019-04-09T12:47:38.017Z,57.80
2019-04-09T12:48:38.882Z,39.60
2019-04-09T12:49:37.936Z,42.40
2019-04-09T12:50:38.305Z,30.50
2019-04-09T12:51:37.778Z,43.40
2019-04-09T12:52:37.802Z,45.30